Time;durP1;ratioP1;P1;durP2;ratioP2;P2;SDS_P1;SDS_P2;PMS_P1;PMS_P2;Temp;Humidity;BMP_temperature;BMP_pressure;BME280_temperature;BME280_humidity;BME280_pressure;Samples;Min_cycle;Max_cycle;Signal;HPM_P1;HPM_P2
2021/01/30 00:01:52;;;;;;;29.25;5.53;;;;;;;9.82;69.84;100036.16;5053879;28;20515;-78
2021/01/30 00:04:19;;;;;;;;;;;;;;;9.55;70.97;100029.06;5052885;28;20045;-76
2021/01/30 00:06:50;;;;;;;25.90;4.60;;;;;;;9.61;71.33;100026.94;5029775;28;19992;-76
2021/01/30 00:09:18;;;;;;;30.38;5.47;;;;;;;9.69;71.75;100021.44;5030143;28;20058;-78
2021/01/30 00:11:50;;;;;;;32.10;5.63;;;;;;;9.78;71.23;100018.72;5047917;28;20045;-76
2021/01/30 00:14:22;;;;;;;30.60;5.55;;;;;;;9.70;72.39;100011.25;5024869;28;20145;-78
2021/01/30 00:16:49;;;;;;;34.30;5.45;;;;;;;9.86;72.12;100017.88;5016013;28;20053;-75
2021/01/30 00:19:17;;;;;;;33.65;6.13;;;;;;;9.93;72.14;100015.44;5050110;28;20049;-76
2021/01/30 00:21:58;;;;;;;30.23;6.55;;;;;;;9.94;72.56;100017.06;5028848;28;20378;-75
2021/01/30 00:24:27;;;;;;;32.75;6.10;;;;;;;9.84;73.96;100009.16;5026973;28;20053;-75
2021/01/30 00:27:01;;;;;;;37.58;6.40;;;;;;;9.64;75.43;99998.84;5015580;28;20501;-76
2021/01/30 00:29:37;;;;;;;33.13;6.10;;;;;;;9.76;75.64;99993.47;5035842;28;20511;-79
2021/01/30 00:32:17;;;;;;;47.08;8.52;;;;;;;10.04;74.82;99994.72;5031276;28;20046;-77
2021/01/30 00:34:45;;;;;;;39.22;6.65;;;;;;;9.88;75.35;99986.19;5036949;28;20037;-76
2021/01/30 00:37:23;;;;;;;39.33;6.55;;;;;;;10.09;74.97;99980.81;5035494;28;20041;-72
2021/01/30 00:39:53;;;;;;;40.33;6.38;;;;;;;10.01;75.04;99984.34;5052698;28;20060;-75
2021/01/30 00:42:25;;;;;;;33.38;6.97;;;;;;;9.83;76.35;99986.31;5028231;28;20060;-76
2021/01/30 00:44:52;;;;;;;42.85;8.05;;;;;;;9.82;76.71;99979.22;5035478;28;20064;-77
2021/01/30 00:47:21;;;;;;;37.33;5.95;;;;;;;9.88;76.45;99979.88;5036747;28;20061;-77
2021/01/30 00:49:49;;;;;;;39.47;6.35;;;;;;;9.84;76.80;99976.13;5002832;28;20508;-78
2021/01/30 00:52:20;;;;;;;36.22;6.05;;;;;;;9.97;76.59;99978.69;5027653;28;20049;-78
2021/01/30 00:55:00;;;;;;;32.95;5.90;;;;;;;9.98;76.89;99974.81;5035996;28;20543;-78
2021/01/30 00:57:27;;;;;;;42.03;6.93;;;;;;;9.79;77.54;99970.81;5050730;28;20044;-75
2021/01/30 00:59:54;;;;;;;41.90;6.30;;;;;;;9.86;77.61;99969.19;5018539;28;20155;-75
2021/01/30 01:02:21;;;;;;;49.50;8.23;;;;;;;9.96;77.73;99965.28;5049412;28;20048;-76
2021/01/30 01:04:49;;;;;;;43.83;7.40;;;;;;;10.08;77.17;99954.41;5018910;28;20049;-76
2021/01/30 01:07:16;;;;;;;40.50;8.18;;;;;;;9.93;77.76;99944.75;5054421;28;20045;-75
2021/01/30 01:09:44;;;;;;;49.15;7.38;;;;;;;10.08;77.46;99935.13;5054890;28;20045;-76
2021/01/30 01:12:11;;;;;;;48.42;7.18;;;;;;;9.94;78.37;99929.03;5055321;28;20060;-81
2021/01/30 01:14:38;;;;;;;47.15;7.03;;;;;;;10.00;78.08;99920.28;5070941;28;20053;-79
2021/01/30 01:17:08;;;;;;;48.75;8.38;;;;;;;10.01;78.39;99921.06;5069687;28;20053;-75
2021/01/30 01:19:35;;;;;;;54.03;7.88;;;;;;;9.90;79.06;99917.88;5057966;28;20060;-77
2021/01/30 01:22:03;;;;;;;41.33;7.10;;;;;;;9.92;79.04;99904.59;5057190;28;20056;-75
2021/01/30 01:24:29;;;;;;;42.10;7.50;;;;;;;10.06;78.39;99894.19;5056351;28;20488;-74
2021/01/30 01:26:57;;;;;;;52.90;10.05;;;;;;;9.97;79.30;99896.16;5056879;28;20041;-76
2021/01/30 01:29:24;;;;;;;57.92;8.10;;;;;;;10.20;78.45;99889.31;5037046;28;20037;-76
2021/01/30 01:31:54;;;;;;;63.50;9.57;;;;;;;10.03;79.14;99888.53;5053608;28;20057;-77
2021/01/30 01:34:27;;;;;;;60.58;10.27;;;;;;;9.94;79.64;99885.00;5034899;28;20040;-77
2021/01/30 01:37:01;;;;;;;57.47;8.10;;;;;;;10.10;79.22;99878.69;5033552;28;20049;-77
2021/01/30 01:39:30;;;;;;;59.83;9.55;;;;;;;10.05;79.38;99880.78;5034547;28;20049;-75
2021/01/30 01:42:17;;;;;;;61.05;8.48;;;;;;;10.08;79.55;99869.09;5044298;28;20052;-76
2021/01/30 01:44:47;;;;;;;52.95;8.27;;;;;;;10.11;79.28;99866.53;5054745;28;20055;-76
2021/01/30 01:47:26;;;;;;;55.08;8.65;;;;;;;10.13;79.78;99857.94;5054816;28;20045;-76
2021/01/30 01:49:54;;;;;;;48.13;7.70;;;;;;;10.19;79.75;99851.94;5036538;28;20053;-75
2021/01/30 01:52:21;;;;;;;49.53;7.32;;;;;;;10.27;79.53;99850.25;5036228;28;20531;-76
2021/01/30 01:54:51;;;;;;;70.45;8.70;;;;;;;10.31;79.57;99842.13;5053555;28;20392;-77
2021/01/30 01:57:18;;;;;;;64.93;9.32;;;;;;;10.18;79.91;99844.81;5020825;28;20044;-77
2021/01/30 01:59:53;;;;;;;65.97;10.65;;;;;;;9.96;80.81;99842.28;5052836;28;20060;-77
2021/01/30 02:02:21;;;;;;;56.95;9.23;;;;;;;10.13;80.67;99833.16;5036002;28;20056;-75
2021/01/30 02:04:58;;;;;;;59.40;8.00;;;;;;;10.26;80.56;99823.06;5036181;28;20440;-75
2021/01/30 02:07:24;;;;;;;57.53;8.15;;;;;;;10.23;80.35;99824.56;5035717;28;20053;-75
2021/01/30 02:09:52;;;;;;;55.38;8.13;;;;;;;10.17;81.28;99818.44;5052858;28;20068;-76
2021/01/30 02:12:19;;;;;;;59.90;8.05;;;;;;;10.23;80.93;99814.34;5019047;28;20056;-77
2021/01/30 02:14:47;;;;;;;62.50;8.93;;;;;;;10.25;81.39;99811.28;5018967;28;20082;-77
2021/01/30 02:17:34;;;;;;;52.83;8.43;;;;;;;10.31;81.17;99817.38;5035700;28;20408;-76
2021/01/30 02:20:26;;;;;;;60.78;8.13;;;;;;;10.34;80.97;99812.00;5035033;28;20060;-77
2021/01/30 02:23:07;;;;;;;72.32;10.45;;;;;;;10.42;80.91;99815.84;5053173;28;20497;-76
2021/01/30 02:26:10;;;;;;;63.78;8.52;;;;;;;10.46;80.57;99792.81;5035933;28;20045;-75
2021/01/30 02:28:51;;;;;;;62.45;9.10;;;;;;;10.27;81.56;99799.94;5035163;28;20519;-76
2021/01/30 02:31:30;;;;;;;42.05;7.10;;;;;;;10.23;82.12;99795.06;5035872;28;20072;-77
2021/01/30 02:34:05;;;;;;;52.33;8.07;;;;;;;10.24;82.44;99798.63;5052575;28;20392;-76
2021/01/30 02:36:50;;;;;;;54.90;8.38;;;;;;;10.22;82.45;99791.88;5047319;28;20057;-76
2021/01/30 02:39:24;;;;;;;62.60;8.23;;;;;;;10.31;82.04;99784.34;5035678;28;20063;-75
2021/01/30 02:42:19;;;;;;;47.85;7.03;;;;;;;10.28;82.04;99774.81;5047249;28;20491;-76
2021/01/30 02:44:51;;;;;;;52.35;7.35;;;;;;;10.26;82.46;99768.03;5035144;28;20492;-77
2021/01/30 02:47:20;;;;;;;43.97;8.00;;;;;;;10.27;82.68;99761.41;5034693;28;20147;-76
2021/01/30 02:50:01;;;;;;;38.63;7.25;;;;;;;10.60;81.11;99749.28;5016054;28;20065;-76
2021/01/30 02:52:28;;;;;;;43.33;6.47;;;;;;;10.50;81.93;99748.91;5030126;28;20045;-76
2021/01/30 02:54:57;;;;;;;32.22;5.38;;;;;;;10.37;82.51;99739.78;5035452;28;20056;-77
2021/01/30 02:57:41;;;;;;;38.47;5.97;;;;;;;10.38;82.69;99737.81;5037450;28;20056;-76
2021/01/30 03:00:22;;;;;;;39.15;6.70;;;;;;;10.36;82.91;99742.84;5037352;28;20484;-78
2021/01/30 03:02:49;;;;;;;23.85;5.15;;;;;;;10.33;82.97;99725.06;5053615;28;20527;-77
2021/01/30 03:05:16;;;;;;;27.80;5.00;;;;;;;10.57;82.13;99718.88;5052638;28;20049;-77
2021/01/30 03:08:10;;;;;;;34.97;4.70;;;;;;;10.49;82.26;99714.25;5053293;28;20068;-77
2021/01/30 03:10:58;;;;;;;32.55;4.75;;;;;;;10.46;82.48;99715.72;5034167;28;20484;-76
2021/01/30 03:13:34;;;;;;;25.13;4.55;;;;;;;10.50;82.30;99710.34;5034979;28;20052;-76
2021/01/30 03:16:07;;;;;;;30.05;5.15;;;;;;;10.25;83.07;99703.94;5053901;28;20053;-76
2021/01/30 03:18:53;;;;;;;27.17;4.35;;;;;;;10.52;82.73;99700.63;5037142;28;20057;-77
2021/01/30 03:21:22;;;;;;;23.35;4.80;;;;;;;10.55;81.67;99697.19;5019945;28;20059;-77
2021/01/30 03:23:50;;;;;;;24.45;4.05;;;;;;;10.49;82.04;99683.97;5035334;28;20488;-76
2021/01/30 03:26:21;;;;;;;23.58;4.22;;;;;;;10.51;82.43;99667.94;5052545;28;20045;-76
2021/01/30 03:28:50;;;;;;;29.75;4.97;;;;;;;10.46;82.82;99665.38;5051459;28;20060;-75
2021/01/30 03:31:17;;;;;;;31.20;4.60;;;;;;;10.26;83.58;99650.50;5017712;28;20063;-77
2021/01/30 03:33:45;;;;;;;22.90;4.32;;;;;;;10.23;83.45;99640.16;5052387;28;20427;-77
2021/01/30 03:36:18;;;;;;;24.45;5.05;;;;;;;10.24;83.77;99630.75;5052247;28;20057;-77
2021/01/30 03:38:44;;;;;;;24.35;4.22;;;;;;;10.15;84.46;99624.53;5034346;28;20060;-76
2021/01/30 03:41:11;;;;;;;26.98;4.55;;;;;;;10.17;84.47;99611.22;5034518;28;20048;-75
2021/01/30 03:43:38;;;;;;;23.40;4.30;;;;;;;10.16;84.89;99606.88;5051855;28;20045;-77
2021/01/30 03:46:05;;;;;;;30.92;4.88;;;;;;;10.07;85.11;99619.88;5034676;28;20388;-75
2021/01/30 03:48:32;;;;;;;19.52;4.20;;;;;;;10.15;85.13;99600.56;5051522;28;20049;-77
2021/01/30 03:50:59;;;;;;;28.63;4.40;;;;;;;10.23;84.70;99585.91;5034869;28;20052;-76
2021/01/30 03:53:26;;;;;;;22.05;4.65;;;;;;;10.15;85.08;99570.31;5034132;28;20057;-76
2021/01/30 03:55:53;;;;;;;22.60;4.72;;;;;;;10.04;85.75;99557.28;5052472;28;20060;-76
2021/01/30 03:58:20;;;;;;;25.58;4.00;;;;;;;10.19;85.30;99553.91;5034151;28;20052;-76
2021/01/30 04:00:48;;;;;;;26.02;5.60;;;;;;;10.14;85.25;99548.63;5035476;28;20053;-76
2021/01/30 04:03:15;;;;;;;27.15;5.00;;;;;;;10.03;85.72;99550.97;5056420;28;20056;-76
2021/01/30 04:05:51;;;;;;;21.40;4.00;;;;;;;10.00;86.28;99557.16;5055975;28;20056;-76
2021/01/30 04:08:18;;;;;;;26.13;4.53;;;;;;;9.99;86.32;99552.78;5056472;28;20048;-76
2021/01/30 04:10:45;;;;;;;20.50;4.20;;;;;;;9.93;87.17;99548.66;5056104;28;20404;-76
2021/01/30 04:13:13;;;;;;;19.80;4.38;;;;;;;9.97;86.98;99546.03;5055582;28;20489;-75
2021/01/30 04:15:42;;;;;;;23.13;4.82;;;;;;;9.93;87.34;99537.63;5021988;28;20432;-76
2021/01/30 04:18:10;;;;;;;23.98;4.10;;;;;;;9.97;87.36;99524.00;5055592;28;20086;-74
2021/01/30 04:20:37;;;;;;;20.92;4.15;;;;;;;10.05;87.09;99520.38;5021735;28;20064;-75
2021/01/30 04:23:06;;;;;;;20.77;3.70;;;;;;;9.98;86.95;99509.09;5037572;28;20496;-76
2021/01/30 04:25:33;;;;;;;19.05;3.83;;;;;;;10.06;87.07;99503.50;5037940;28;20052;-77
2021/01/30 04:28:00;;;;;;;18.40;4.03;;;;;;;9.97;87.08;99489.03;5038423;28;20516;-75
2021/01/30 04:30:28;;;;;;;25.20;4.75;;;;;;;9.87;87.68;99488.66;5038233;28;20053;-74
2021/01/30 04:32:58;;;;;;;20.20;4.10;;;;;;;9.81;88.03;99473.53;5055332;28;20395;-75
2021/01/30 04:35:30;;;;;;;22.00;4.63;;;;;;;9.99;87.79;99466.69;5039186;28;20065;-75
2021/01/30 04:37:58;;;;;;;21.58;4.45;;;;;;;10.04;87.53;99461.78;5021173;28;20060;-75
2021/01/30 04:40:36;;;;;;;23.10;4.25;;;;;;;9.97;88.14;99467.03;5056820;28;20056;-75
2021/01/30 04:43:25;;;;;;;16.25;3.50;;;;;;;10.17;87.78;99451.66;5038560;28;20401;-75
2021/01/30 04:46:14;;;;;;;18.88;3.75;;;;;;;9.96;87.23;99448.13;5038165;28;20534;-75
2021/01/30 04:48:55;;;;;;;20.02;4.28;;;;;;;9.88;88.62;99435.28;5054916;28;20061;-77
2021/01/30 04:51:52;;;;;;;19.58;4.30;;;;;;;9.87;88.45;99420.72;5022545;28;20053;-76
2021/01/30 04:54:30;;;;;;;19.73;4.20;;;;;;;9.92;88.07;99415.00;5037727;28;20053;-75
2021/01/30 04:57:22;;;;;;;13.38;2.92;;;;;;;9.96;88.00;99404.94;5038316;28;20053;-75
2021/01/30 05:00:08;;;;;;;19.10;3.30;;;;;;;9.80;88.67;99394.91;5023856;28;20404;-75
2021/01/30 05:02:46;;;;;;;16.50;3.10;;;;;;;9.89;88.46;99395.63;5023755;28;20060;-77
2021/01/30 05:05:25;;;;;;;20.02;3.08;;;;;;;9.99;87.39;99382.22;5038274;28;20067;-76
2021/01/30 05:08:18;;;;;;;17.27;2.92;;;;;;;9.74;88.50;99375.09;5021559;28;20041;-75
2021/01/30 05:10:51;;;;;;;13.55;3.03;;;;;;;9.70;88.82;99370.59;5046242;28;20385;-75
2021/01/30 05:13:38;;;;;;;14.60;3.08;;;;;;;9.74;89.06;99350.34;5020514;28;20041;-75
2021/01/30 05:16:18;;;;;;;15.45;3.30;;;;;;;9.42;89.96;99351.16;5021415;28;20052;-76
2021/01/30 05:18:57;;;;;;;16.98;3.22;;;;;;;9.64;90.52;99336.25;5054907;28;20048;-76
2021/01/30 05:21:37;;;;;;;13.10;2.50;;;;;;;9.55;90.38;99327.28;5038041;28;20473;-75
2021/01/30 05:24:08;;;;;;;12.15;2.92;;;;;;;9.53;90.55;99321.31;5037062;28;20404;-76
2021/01/30 05:26:48;;;;;;;12.23;3.05;;;;;;;9.43;90.58;99319.78;5039549;28;20040;-76
2021/01/30 05:29:19;;;;;;;15.55;2.72;;;;;;;9.43;90.74;99327.25;5057233;28;20401;-76
2021/01/30 05:31:52;;;;;;;13.23;2.58;;;;;;;9.55;90.70;99313.53;5038063;28;20060;-76
2021/01/30 05:34:30;;;;;;;10.70;2.28;;;;;;;9.41;90.76;99302.06;5053864;28;20055;-74
2021/01/30 05:37:24;;;;;;;11.30;3.30;;;;;;;9.56;91.04;99299.44;5020156;28;20053;-75
2021/01/30 05:40:25;;;;;;;13.93;2.67;;;;;;;9.65;90.50;99288.34;5036197;28;20053;-75
2021/01/30 05:43:01;;;;;;;12.57;2.80;;;;;;;9.42;90.96;99287.97;5036204;28;20409;-75
2021/01/30 05:45:47;;;;;;;12.85;2.50;;;;;;;9.45;91.50;99278.25;5019495;28;20056;-75
2021/01/30 05:48:19;;;;;;;14.95;2.58;;;;;;;9.47;91.83;99275.94;5053601;28;20048;-76
2021/01/30 05:50:58;;;;;;;10.13;2.47;;;;;;;9.56;91.60;99277.47;5020562;28;20481;-75
2021/01/30 05:53:26;;;;;;;9.95;2.15;;;;;;;9.62;91.65;99254.13;5020137;28;20052;-75
2021/01/30 05:55:56;;;;;;;8.18;1.90;;;;;;;9.58;91.00;99250.44;5053697;28;20057;-76
2021/01/30 05:58:25;;;;;;;8.63;2.00;;;;;;;9.59;91.13;99243.78;5052999;28;20044;-74
2021/01/30 06:01:17;;;;;;;6.85;2.15;;;;;;;9.65;91.18;99244.34;5054060;28;20477;-75
2021/01/30 06:04:03;;;;;;;6.05;1.50;;;;;;;9.66;91.01;99234.97;5036427;28;20071;-74
2021/01/30 06:06:37;;;;;;;7.07;1.92;;;;;;;9.60;91.40;99230.84;5035956;28;20052;-75
2021/01/30 06:09:08;;;;;;;6.38;2.03;;;;;;;9.58;91.81;99222.94;5053693;28;20048;-75
2021/01/30 06:11:49;;;;;;;6.60;1.73;;;;;;;9.82;91.05;99219.38;5002989;28;20060;-76
2021/01/30 06:14:27;;;;;;;4.65;1.85;;;;;;;9.84;90.28;99220.66;5015725;28;20064;-77
2021/01/30 06:16:59;;;;;;;5.32;1.65;;;;;;;9.86;90.06;99218.38;5034071;28;20049;-75
2021/01/30 06:19:33;;;;;;;6.28;1.90;;;;;;;9.91;90.26;99209.88;5034468;28;20037;-76
2021/01/30 06:22:22;;;;;;;6.75;1.80;;;;;;;9.90;89.83;99202.75;5053804;28;20492;-77
2021/01/30 06:24:49;;;;;;;5.57;1.67;;;;;;;9.98;89.61;99192.78;5034216;28;20049;-75
2021/01/30 06:27:38;;;;;;;4.70;1.23;;;;;;;9.82;89.96;99200.13;5053665;28;20048;-77
2021/01/30 06:30:12;;;;;;;7.18;2.03;;;;;;;9.91;90.20;99204.38;5036032;28;20057;-77
2021/01/30 06:32:48;;;;;;;4.30;1.38;;;;;;;9.89;89.88;99192.91;5019215;28;20048;-76
2021/01/30 06:35:18;;;;;;;4.50;1.20;;;;;;;10.05;89.33;99179.25;5035694;28;20075;-76
2021/01/30 06:37:53;;;;;;;3.35;1.20;;;;;;;10.15;88.97;99189.78;5053572;28;20080;-75
2021/01/30 06:40:24;;;;;;;3.35;1.20;;;;;;;9.97;89.42;99183.72;5035052;28;20053;-76
2021/01/30 06:42:55;;;;;;;2.80;1.10;;;;;;;10.00;89.94;99188.56;5035152;28;20063;-74
2021/01/30 06:45:32;;;;;;;2.67;1.00;;;;;;;9.96;90.16;99186.81;5019685;28;20396;-76
2021/01/30 06:48:01;;;;;;;2.97;1.10;;;;;;;10.12;89.97;99187.75;5052723;28;20060;-76
2021/01/30 06:50:42;;;;;;;3.72;1.15;;;;;;;10.16;89.37;99183.94;5018298;28;20052;-75
2021/01/30 06:53:15;;;;;;;4.75;1.48;;;;;;;10.15;89.39;99176.84;5052992;28;20045;-76
2021/01/30 06:55:42;;;;;;;6.38;1.65;;;;;;;10.08;89.76;99162.03;5052924;28;20041;-75
2021/01/30 06:58:14;;;;;;;2.55;1.05;;;;;;;10.13;89.85;99162.63;5049065;28;20059;-75
2021/01/30 07:00:41;;;;;;;3.45;1.10;;;;;;;10.12;89.84;99157.47;5035635;28;20045;-76
2021/01/30 07:03:52;;;;;;;3.25;1.02;;;;;;;10.19;89.72;99154.94;5035378;28;20049;-76
2021/01/30 07:06:37;;;;;;;2.03;0.75;;;;;;;10.26;89.59;99143.34;4972347;28;20055;-76
2021/01/30 07:09:10;;;;;;;1.60;0.70;;;;;;;10.26;89.48;99157.91;4941034;28;20042;-75
2021/01/30 07:11:53;;;;;;;3.17;1.02;;;;;;;10.19;89.96;99144.75;4971948;28;20058;-74
2021/01/30 07:14:39;;;;;;;1.70;0.82;;;;;;;10.33;89.68;99132.53;4952772;29;20055;-76
2021/01/30 07:17:31;;;;;;;2.30;0.80;;;;;;;10.29;89.48;99134.41;4953379;29;20056;-76
2021/01/30 07:20:03;;;;;;;1.48;0.73;;;;;;;10.32;89.81;99125.44;4943314;29;20128;-74
2021/01/30 07:22:38;;;;;;;1.90;0.70;;;;;;;10.38;90.25;99124.84;4949916;28;20050;-76
2021/01/30 07:25:10;;;;;;;1.23;0.57;;;;;;;10.41;89.78;99115.88;4955558;28;20066;-76
2021/01/30 07:27:40;;;;;;;2.05;0.65;;;;;;;10.49;89.62;99111.38;4956006;28;20066;-75
2021/01/30 07:30:19;;;;;;;2.72;0.80;;;;;;;10.52;90.03;99107.91;4955374;28;20098;-76
2021/01/30 07:32:55;;;;;;;1.40;0.60;;;;;;;10.54;89.12;99103.66;4971441;28;20054;-76
2021/01/30 07:35:29;;;;;;;2.13;0.73;;;;;;;10.69;89.16;99097.38;4955308;28;20070;-76
2021/01/30 07:38:18;;;;;;;1.08;0.57;;;;;;;10.65;89.17;99099.22;4939304;28;20055;-76
2021/01/30 07:40:54;;;;;;;1.42;0.60;;;;;;;10.68;89.19;99092.22;4955647;28;20061;-76
2021/01/30 07:43:29;;;;;;;2.08;0.80;;;;;;;10.73;89.03;99089.19;5024023;28;20045;-75
2021/01/30 07:46:19;;;;;;;4.10;1.10;;;;;;;10.75;88.73;99084.94;5017711;28;20049;-75
2021/01/30 07:48:51;;;;;;;2.13;0.70;;;;;;;10.85;88.10;99076.16;5034262;28;20057;-75
2021/01/30 07:51:22;;;;;;;1.33;0.70;;;;;;;10.95;88.07;99088.59;5017909;28;20056;-75
2021/01/30 07:53:50;;;;;;;2.03;0.50;;;;;;;10.93;87.81;99086.19;5033740;28;20045;-76
2021/01/30 07:56:17;;;;;;;3.28;0.75;;;;;;;10.84;88.71;99098.56;5034370;28;20049;-75
2021/01/30 07:59:02;;;;;;;6.15;3.03;;;;;;;10.90;88.67;99097.13;5051004;28;20409;-74
2021/01/30 08:02:20;;;;;;;10.18;4.93;;;;;;;10.92;88.46;99090.09;5034856;28;20048;-75
2021/01/30 08:05:06;;;;;;;1.98;0.88;;;;;;;11.09;88.40;99086.19;4955701;28;20057;-75
2021/01/30 08:07:53;;;;;;;2.35;0.80;;;;;;;11.14;87.83;99081.22;4970711;28;20458;-75
2021/01/30 08:10:23;;;;;;;1.40;0.75;;;;;;;11.42;86.80;99077.53;4971156;28;20070;-77
2021/01/30 08:13:25;;;;;;;2.78;0.90;;;;;;;11.31;86.69;99071.78;4954884;28;20051;-75
2021/01/30 08:16:03;;;;;;;11.23;6.07;;;;;;;11.31;86.89;99083.59;4970516;28;20054;-75
2021/01/30 08:18:38;;;;;;;11.27;5.57;;;;;;;11.29;87.13;99079.59;4939813;28;20043;-75
2021/01/30 08:21:33;;;;;;;5.40;2.30;;;;;;;11.43;86.68;99073.63;4971417;28;20058;-76
2021/01/30 08:24:16;;;;;;;4.07;1.60;;;;;;;11.51;86.20;99069.84;4970995;28;20054;-77
2021/01/30 08:26:57;;;;;;;3.25;1.10;;;;;;;11.55;86.04;99068.78;4971419;28;20051;-76
2021/01/30 08:29:37;;;;;;;2.30;1.00;;;;;;;11.52;86.20;99054.94;4971470;28;20059;-77
2021/01/30 08:32:25;;;;;;;3.40;1.13;;;;;;;11.59;86.22;99057.84;4971085;28;20067;-76
2021/01/30 08:34:59;;;;;;;3.75;1.20;;;;;;;11.62;85.77;99065.38;4988163;28;20350;-76
2021/01/30 08:37:26;;;;;;;1.55;0.85;;;;;;;11.43;86.64;99062.59;5014935;28;20041;-76
2021/01/30 08:40:07;;;;;;;2.65;0.82;;;;;;;11.59;86.75;99058.66;5014519;28;20045;-74
2021/01/30 08:42:37;;;;;;;3.40;1.00;;;;;;;11.85;86.05;99049.78;5039981;28;20049;-76
2021/01/30 08:45:09;;;;;;;1.60;0.70;;;;;;;11.91;85.23;99053.81;5051714;28;20247;-74
2021/01/30 08:48:20;;;;;;;3.03;0.90;;;;;;;11.84;85.29;99048.16;5017992;28;20484;-75
2021/01/30 08:50:49;;;;;;;1.13;0.50;;;;;;;11.87;85.16;99048.22;5021173;28;20064;-76
2021/01/30 08:53:29;;;;;;;1.83;0.80;;;;;;;11.87;84.63;99047.47;5037305;28;20052;-76
2021/01/30 08:56:05;;;;;;;3.00;0.90;;;;;;;11.79;85.46;99046.50;5046874;28;20071;-75
2021/01/30 08:58:32;;;;;;;4.15;1.10;;;;;;;11.89;85.58;99048.69;5037447;28;20049;-76
2021/01/30 09:01:20;;;;;;;5.57;1.50;;;;;;;11.99;85.09;99039.84;5050660;28;20520;-75
2021/01/30 09:04:03;;;;;;;6.20;1.15;;;;;;;12.12;84.70;99054.28;5049787;28;20076;-75
2021/01/30 09:06:40;;;;;;;6.45;1.25;;;;;;;12.04;84.56;99049.78;5019306;28;20042;-75
2021/01/30 09:10:12;;;;;;;5.60;1.30;;;;;;;12.10;84.13;99051.88;5051143;28;20049;-76
2021/01/30 09:13:12;;;;;;;7.43;2.10;;;;;;;12.15;84.11;99054.34;5053705;28;20412;-75
2021/01/30 09:15:47;;;;;;;3.92;1.25;;;;;;;12.25;83.73;99045.50;5054616;28;20064;-74
2021/01/30 09:18:32;;;;;;;5.00;1.08;;;;;;;12.41;83.11;99050.91;5055267;28;20162;-75
2021/01/30 09:21:11;;;;;;;9.20;2.67;;;;;;;12.38;83.03;99052.44;5055058;28;20063;-74
2021/01/30 09:24:11;;;;;;;8.18;3.25;;;;;;;12.51;82.82;99058.59;5022066;28;20048;-75
2021/01/30 09:27:02;;;;;;;4.45;1.13;;;;;;;12.50;81.50;99062.50;5054904;28;20049;-75
2021/01/30 09:29:39;;;;;;;4.65;1.60;;;;;;;12.51;81.63;99061.38;5020012;28;20059;-74
2021/01/30 09:32:07;;;;;;;7.80;1.83;;;;;;;12.45;82.71;99060.84;5036668;28;20072;-75
2021/01/30 09:34:45;;;;;;;4.22;1.55;;;;;;;12.38;82.88;99062.66;5037505;28;20052;-74
2021/01/30 09:37:32;;;;;;;10.35;1.83;;;;;;;12.24;84.10;99059.63;5039460;28;20056;-76
2021/01/30 09:40:00;;;;;;;6.00;1.45;;;;;;;12.40;84.12;99057.59;5057011;28;20049;-76
2021/01/30 09:42:28;;;;;;;4.32;1.20;;;;;;;12.56;83.55;99051.97;5036710;28;20409;-75
2021/01/30 09:45:15;;;;;;;7.32;1.10;;;;;;;12.60;82.99;99058.34;5019418;28;20053;-75
2021/01/30 09:47:45;;;;;;;5.25;1.38;;;;;;;12.49;82.64;99052.63;5036233;28;20436;-76
2021/01/30 09:50:17;;;;;;;3.15;1.00;;;;;;;12.63;82.56;99052.91;5036467;28;20075;-74
2021/01/30 09:52:52;;;;;;;4.68;1.23;;;;;;;12.62;81.68;99053.28;5020170;28;20401;-74
2021/01/30 09:55:21;;;;;;;8.73;3.58;;;;;;;12.72;82.17;99045.19;5004968;28;20045;-75
2021/01/30 09:57:48;;;;;;;19.40;2.30;;;;;;;12.61;82.46;99049.69;5035530;28;20045;-77
2021/01/30 10:00:37;;;;;;;6.85;1.50;;;;;;;12.57;83.29;99051.59;5018440;28;20351;-76
2021/01/30 10:03:21;;;;;;;6.72;1.55;;;;;;;12.54;83.04;99046.00;5015131;28;20048;-75
2021/01/30 10:06:15;;;;;;;7.05;1.67;;;;;;;12.85;81.91;99041.03;5017400;28;20042;-75
2021/01/30 10:08:45;;;;;;;8.70;1.63;;;;;;;12.73;82.05;99037.66;5053788;28;20484;-77
2021/01/30 10:11:18;;;;;;;7.78;1.88;;;;;;;12.83;81.37;99035.09;5019780;28;20056;-76
2021/01/30 10:13:55;;;;;;;9.40;2.55;;;;;;;12.80;81.46;99035.84;5051759;28;20424;-76
2021/01/30 10:16:24;;;;;;;6.63;1.50;;;;;;;12.86;81.60;99031.59;5018563;28;20052;-75
2021/01/30 10:18:53;;;;;;;4.57;1.45;;;;;;;12.89;80.95;99022.56;5052424;28;20049;-74
2021/01/30 10:21:36;;;;;;;8.82;1.63;;;;;;;13.04;79.64;99035.47;5052292;28;20060;-73
2021/01/30 10:24:17;;;;;;;7.70;1.73;;;;;;;13.07;79.09;99036.72;5026078;28;20052;-74
2021/01/30 10:27:09;;;;;;;10.50;2.00;;;;;;;13.08;78.70;99035.53;5050165;28;20053;-74
2021/01/30 10:29:36;;;;;;;6.45;1.63;;;;;;;13.30;78.14;99032.72;5052040;28;20055;-74
2021/01/30 10:32:09;;;;;;;5.82;1.63;;;;;;;13.17;78.81;99039.66;5033221;28;20484;-75
2021/01/30 10:34:39;;;;;;;6.85;1.42;;;;;;;13.31;79.39;99039.06;5013802;28;20507;-76
2021/01/30 10:37:09;;;;;;;;;;;;;;;13.24;78.68;99028.69;5001654;28;20053;-75
2021/01/30 10:39:40;;;;;;;14.48;1.70;;;;;;;13.36;78.03;99033.22;5052070;28;19920;-73
2021/01/30 10:42:15;;;;;;;6.60;1.67;;;;;;;13.41;78.38;99030.13;5032656;28;20048;-73
2021/01/30 10:44:45;;;;;;;5.07;1.15;;;;;;;13.57;77.76;99033.53;5025192;28;20053;-73
2021/01/30 10:47:14;;;;;;;9.18;1.60;;;;;;;13.44;76.78;99026.63;5030737;28;20046;-72
2021/01/30 10:49:41;;;;;;;7.78;1.80;;;;;;;13.25;77.66;99024.75;5034130;28;20045;-70
2021/01/30 10:52:23;;;;;;;9.13;2.05;;;;;;;13.40;77.12;99031.31;5033313;28;20068;-73
2021/01/30 10:55:37;;;;;;;9.98;2.10;;;;;;;13.35;76.77;99023.34;5050561;28;20057;-71
2021/01/30 10:58:18;;;;;;;8.15;1.90;;;;;;;13.50;76.20;99030.66;5044922;28;20053;-75
2021/01/30 11:01:09;;;;;;;6.75;1.67;;;;;;;13.62;75.87;99027.66;5000015;28;20063;-73
2021/01/30 11:03:54;;;;;;;8.57;2.03;;;;;;;13.49;75.40;99032.63;5033963;28;20060;-72
2021/01/30 11:06:43;;;;;;;10.30;1.73;;;;;;;13.41;75.61;99028.16;5000406;28;20397;-72
2021/01/30 11:09:22;;;;;;;10.55;2.17;;;;;;;13.82;74.53;99033.88;5042745;28;20040;-75
2021/01/30 11:12:11;;;;;;;11.77;2.38;;;;;;;13.50;74.69;99034.22;5033814;28;20044;-75
2021/01/30 11:14:39;;;;;;;8.93;2.10;;;;;;;13.23;75.85;99032.63;5026035;28;20054;-74
2021/01/30 11:17:28;;;;;;;8.68;2.30;;;;;;;13.37;75.35;99021.00;5022157;28;20424;-74
2021/01/30 11:19:57;;;;;;;7.25;2.00;;;;;;;13.28;74.98;99018.50;5015007;28;20504;-74
2021/01/30 11:22:27;;;;;;;12.90;2.40;;;;;;;13.29;74.85;99020.09;5051257;28;20061;-74
2021/01/30 11:25:04;;;;;;;13.77;2.80;;;;;;;13.66;73.71;99019.41;5015998;28;20038;-74
2021/01/30 11:27:40;;;;;;;9.95;2.20;;;;;;;13.60;73.32;99034.75;5048231;28;20378;-74
2021/01/30 11:30:11;;;;;;;11.77;2.53;;;;;;;13.54;73.42;99032.31;5047566;28;20044;-75
2021/01/30 11:33:09;;;;;;;8.80;1.90;;;;;;;13.52;73.87;99029.13;5035699;28;20064;-75
2021/01/30 11:35:43;;;;;;;14.70;4.22;;;;;;;13.63;73.58;99018.22;5021254;28;20512;-76
2021/01/30 11:38:20;;;;;;;18.98;6.45;;;;;;;13.89;72.70;99020.94;5020366;28;20045;-75
2021/01/30 11:40:54;;;;;;;14.60;3.08;;;;;;;13.80;71.59;99011.28;5034227;28;20048;-77
2021/01/30 11:43:22;;;;;;;16.30;2.50;;;;;;;13.65;72.62;99015.84;5049923;28;20508;-77
2021/01/30 11:45:50;;;;;;;15.25;3.00;;;;;;;13.85;72.08;99000.69;5036917;28;20096;-72
2021/01/30 11:48:18;;;;;;;16.70;3.28;;;;;;;13.87;71.51;98997.56;5051311;28;20068;-72
2021/01/30 11:50:46;;;;;;;17.13;2.63;;;;;;;13.72;71.88;99010.41;5034028;28;20374;-72
2021/01/30 11:53:16;;;;;;;14.25;2.80;;;;;;;13.83;71.92;99019.66;5052087;28;20049;-75
2021/01/30 11:55:44;;;;;;;;;;;;;;;13.83;71.55;99016.06;5050657;28;20508;-74
2021/01/30 11:58:11;;;;;;;15.63;2.80;;;;;;;13.70;71.53;99018.31;5033791;28;20292;-75
2021/01/30 12:00:39;;;;;;;16.48;2.80;;;;;;;13.63;71.83;99012.66;5034208;28;20045;-75
2021/01/30 12:03:15;;;;;;;15.67;4.27;;;;;;;14.01;70.86;99000.50;5033891;28;20056;-76
2021/01/30 12:05:42;;;;;;;10.48;2.90;;;;;;;14.10;70.15;99012.88;5034153;28;20302;-75
2021/01/30 12:08:09;;;;;;;21.33;4.68;;;;;;;14.03;69.93;99004.50;5051298;28;20056;-74
2021/01/30 12:10:35;;;;;;;20.27;5.03;;;;;;;13.97;69.96;99007.94;5051361;28;20053;-73
2021/01/30 12:13:03;;;;;;;18.13;5.75;;;;;;;14.23;69.85;99010.63;5034658;28;20489;-74